createdAt,value
2019-02-12T05:23:27.163Z,2.60
2019-02-12T05:25:56.800Z,3.07
2019-02-12T05:28:26.472Z,3.07
2019-02-12T05:30:56.807Z,3.60
2019-02-12T05:33:26.864Z,2.80
2019-02-12T05:35:56.905Z,2.20
2019-02-12T05:38:32.309Z,2.07
2019-02-12T05:41:06.109Z,2.53
2019-02-12T05:43:36.043Z,2.23
2019-02-12T05:46:06.426Z,3.73
2019-02-12T05:48:36.912Z,2.80
2019-02-12T05:51:06.918Z,3.23
2019-02-12T05:53:36.780Z,2.93
2019-02-12T05:56:06.211Z,2.80
2019-02-12T05:58:35.688Z,3.70
2019-02-12T06:01:05.112Z,2.70
2019-02-12T06:03:34.529Z,3.57
2019-02-12T06:06:04.000Z,3.37
2019-02-12T06:08:33.452Z,4.78
2019-02-12T06:11:02.835Z,3.10
2019-02-12T06:13:32.264Z,3.60
2019-02-12T06:16:01.862Z,2.70
2019-02-12T06:18:32.047Z,2.33
2019-02-12T06:21:01.459Z,2.40
2019-02-12T06:23:30.887Z,4.13
2019-02-12T06:26:00.288Z,4.10
2019-02-12T06:28:29.672Z,3.10
2019-02-12T06:30:59.009Z,3.33
2019-02-12T06:33:28.344Z,2.70
2019-02-12T06:35:57.674Z,2.87
2019-02-12T06:38:27.008Z,2.53
2019-02-12T06:40:56.433Z,2.73
2019-02-12T06:43:25.743Z,2.30
2019-02-12T06:45:55.091Z,3.30
2019-02-12T06:48:24.499Z,2.47
2019-02-12T06:50:53.916Z,3.33
2019-02-12T06:53:23.241Z,3.77
2019-02-12T06:55:52.560Z,4.73
2019-02-12T06:58:21.937Z,3.23
2019-02-12T07:00:51.238Z,2.83
2019-02-12T07:03:49.537Z,4.70
2019-02-12T07:06:43.429Z,3.20
2019-02-12T07:09:39.759Z,2.27
2019-02-12T07:12:43.697Z,2.73
2019-02-12T07:15:49.244Z,3.97
2019-02-12T07:18:47.072Z,3.47
2019-02-12T07:21:44.375Z,2.93
2019-02-12T07:24:57.636Z,2.57
2019-02-12T07:27:45.356Z,3.20
2019-02-12T07:30:58.266Z,3.10
2019-02-12T07:34:23.110Z,3.10
2019-02-12T07:37:42.569Z,5.17
2019-02-12T07:40:54.393Z,5.67
2019-02-12T07:44:01.656Z,3.30
2019-02-12T07:47:17.393Z,3.00
2019-02-12T07:50:15.613Z,2.80
2019-02-12T07:53:06.305Z,3.20
2019-02-12T07:56:03.397Z,3.20
2019-02-12T07:59:15.259Z,3.40
2019-02-12T08:02:46.901Z,2.93
2019-02-12T08:06:01.365Z,2.83
2019-02-12T08:08:56.599Z,3.23
2019-02-12T08:11:57.741Z,3.00
2019-02-12T08:15:14.016Z,3.13
2019-02-12T08:18:14.218Z,2.73
2019-02-12T08:21:23.536Z,3.33
2019-02-12T08:24:32.778Z,2.80
2019-02-12T08:27:51.068Z,3.07
2019-02-12T08:30:59.448Z,2.80
2019-02-12T08:33:57.321Z,3.27
2019-02-12T08:36:50.658Z,3.20
2019-02-12T08:39:56.325Z,3.33
2019-02-12T08:43:15.946Z,3.40
2019-02-12T08:46:13.531Z,2.90
2019-02-12T08:57:00.561Z,3.03
2019-02-12T08:59:51.267Z,3.30
2019-02-12T09:02:52.169Z,3.17
2019-02-12T09:06:15.103Z,3.30
2019-02-12T09:09:35.056Z,3.63
2019-02-12T09:12:49.720Z,3.00
2019-02-12T09:15:43.388Z,3.47
2019-02-12T09:18:42.147Z,2.53
2019-02-12T09:21:39.712Z,2.33
2019-02-12T09:28:53.784Z,3.07
2019-02-12T09:32:03.193Z,2.77
2019-02-12T09:35:34.006Z,2.70
2019-02-12T09:38:30.809Z,3.00
2019-02-12T09:42:24.299Z,2.77
2019-02-12T12:03:50.794Z,6.37
2019-02-12T12:06:28.963Z,7.58
2019-02-12T12:09:00.670Z,5.87
2019-02-12T12:11:30.027Z,5.67
2019-02-12T12:13:59.495Z,5.40
2019-02-12T12:16:28.955Z,5.00
2019-02-12T12:18:58.626Z,6.57
2019-02-12T12:21:28.366Z,5.13
2019-02-12T12:23:58.275Z,6.47
2019-02-12T12:26:27.683Z,5.30
2019-02-12T12:28:57.076Z,6.00
2019-02-12T12:31:26.529Z,5.53
2019-02-12T12:33:56.242Z,6.17
2019-02-12T12:36:25.596Z,6.00
2019-02-12T12:38:55.028Z,4.70
2019-02-12T12:41:24.432Z,4.77
2019-02-12T12:43:53.848Z,5.63
2019-02-12T12:46:23.239Z,5.40
2019-02-12T12:48:52.755Z,8.08
2019-02-12T12:51:22.264Z,8.23
2019-02-12T12:53:51.777Z,6.70
2019-02-12T12:56:21.211Z,6.40
2019-02-12T12:58:50.624Z,6.60
2019-02-12T13:01:20.095Z,5.70
2019-02-12T13:03:49.794Z,5.80
2019-02-12T13:06:19.444Z,8.93
2019-02-12T13:08:48.951Z,6.97
2019-02-12T13:11:18.507Z,6.60
2019-02-12T13:13:48.024Z,7.23
2019-02-12T13:16:17.491Z,7.83
2019-02-12T13:18:46.888Z,8.37
2019-02-12T13:21:16.410Z,8.20
2019-02-12T13:23:45.779Z,6.77
2019-02-12T13:26:15.258Z,8.47
2019-02-12T13:28:44.698Z,10.47
2019-02-12T13:31:14.223Z,9.13
2019-02-12T13:33:43.711Z,7.87
2019-02-12T13:36:13.210Z,8.10
2019-02-12T13:38:42.662Z,8.60
2019-02-12T13:41:12.093Z,7.77
2019-02-12T13:43:41.562Z,7.30
2019-02-12T13:46:11.045Z,6.87
2019-02-12T13:48:40.627Z,6.53
2019-02-12T13:51:18.603Z,7.37
2019-02-12T13:53:48.041Z,7.23
2019-02-12T13:56:17.563Z,5.73
2019-02-12T13:58:47.057Z,5.90
2019-02-12T14:01:16.552Z,6.57
2019-02-12T14:03:46.091Z,7.17
2019-02-12T14:06:16.685Z,6.43
2019-02-12T14:08:46.201Z,6.77
2019-02-12T14:11:16.592Z,7.23
2019-02-12T14:13:46.094Z,6.10
2019-02-12T14:16:34.892Z,5.57
2019-02-12T14:19:11.926Z,7.40
2019-02-12T14:21:41.509Z,7.00
2019-02-12T14:24:11.133Z,6.37
2019-02-12T14:26:40.725Z,6.50
2019-02-12T15:06:35.525Z,7.53
2019-02-12T15:12:50.981Z,6.97
2019-02-12T15:15:53.504Z,6.53
2019-02-12T15:18:53.728Z,7.53
2019-02-12T15:21:40.560Z,6.77
2019-02-12T15:24:11.380Z,7.60
2019-02-12T15:27:06.587Z,6.90
2019-02-12T15:29:42.440Z,8.00
2019-02-12T15:32:14.052Z,6.90
2019-02-12T15:34:46.716Z,7.77
2019-02-12T15:37:16.523Z,7.60
2019-02-12T15:39:46.728Z,7.30
2019-02-12T15:42:16.700Z,8.50
2019-02-12T15:44:47.016Z,7.67
2019-02-12T15:47:17.185Z,7.83
2019-02-12T15:49:47.509Z,9.50
2019-02-12T15:52:17.452Z,8.70
2019-02-12T15:54:48.291Z,9.33
2019-02-12T15:57:18.632Z,8.57
2019-02-12T15:59:52.268Z,9.13
2019-02-12T16:02:22.995Z,11.57
2019-02-12T16:04:52.871Z,11.00
2019-02-12T16:07:24.321Z,9.37
2019-02-12T16:09:55.010Z,10.33
2019-02-12T16:12:26.418Z,9.77
2019-02-12T16:14:57.364Z,8.53
2019-02-12T16:17:27.633Z,8.63
2019-02-12T16:19:58.297Z,9.67
2019-02-12T16:22:27.953Z,10.17
2019-02-12T16:24:57.547Z,9.73
2019-02-12T16:27:27.056Z,8.70
2019-02-12T16:29:56.535Z,8.60
2019-02-12T16:32:28.778Z,11.73
2019-02-12T16:35:00.352Z,14.63
2019-02-12T16:37:30.705Z,12.37
2019-02-12T16:40:00.551Z,11.90
2019-02-12T16:42:31.031Z,11.63
2019-02-12T16:45:01.700Z,12.67
2019-02-12T16:47:32.126Z,11.07
2019-02-12T16:50:02.760Z,10.23
2019-02-12T16:52:34.093Z,9.43
2019-02-12T16:55:04.272Z,9.70
2019-02-12T16:57:35.862Z,11.47
2019-02-12T17:00:08.818Z,10.83
2019-02-12T17:02:40.650Z,9.80
2019-02-12T17:05:12.083Z,10.60
2019-02-12T17:07:42.877Z,13.00
2019-02-12T17:10:14.018Z,12.63
2019-02-12T17:12:58.136Z,11.40
2019-02-12T17:15:31.366Z,11.93
2019-02-12T17:18:06.218Z,12.13
2019-02-12T17:20:56.924Z,12.50
2019-02-12T17:23:36.299Z,11.10
2019-02-12T17:26:06.643Z,11.80
2019-02-12T17:28:37.056Z,11.87
2019-02-12T17:31:09.880Z,15.23
2019-02-12T17:33:46.704Z,12.83
2019-02-12T17:36:16.748Z,11.30
2019-02-12T17:38:46.527Z,14.93
2019-02-12T17:41:16.718Z,12.53
2019-02-12T17:43:46.632Z,13.03
2019-02-12T17:46:16.658Z,13.83
2019-02-12T17:48:46.665Z,16.20
2019-02-12T17:51:16.480Z,16.63
2019-02-12T17:53:46.282Z,15.23
2019-02-12T17:56:16.093Z,14.90
2019-02-12T17:58:45.944Z,13.53
2019-02-12T18:01:15.590Z,14.30
2019-02-12T18:03:45.306Z,14.90
2019-02-12T18:06:15.033Z,15.50
2019-02-12T18:08:44.955Z,13.40
2019-02-12T18:11:14.655Z,16.73
2019-02-12T18:13:44.954Z,14.53
2019-02-12T18:16:14.681Z,12.87
2019-02-12T18:18:46.586Z,13.40
2019-02-12T18:21:16.201Z,13.20
2019-02-12T18:23:46.009Z,13.50
2019-02-12T18:26:15.600Z,13.53
2019-02-12T18:28:45.201Z,13.97
2019-02-12T18:31:14.764Z,12.70
2019-02-12T18:33:44.512Z,11.97
2019-02-12T18:36:14.307Z,13.20
2019-02-12T18:38:43.770Z,13.63
2019-02-12T18:41:13.289Z,13.27
2019-02-12T18:43:42.722Z,14.37
2019-02-12T18:46:12.157Z,14.27
2019-02-12T18:48:41.693Z,14.10
2019-02-12T18:51:11.207Z,14.73
2019-02-12T18:53:40.729Z,14.77
2019-02-12T18:56:10.141Z,13.50
2019-02-12T18:58:40.744Z,13.87
2019-02-12T19:01:11.030Z,14.40
2019-02-12T19:03:40.521Z,13.07
2019-02-12T19:06:09.986Z,13.27
2019-02-12T19:08:39.542Z,14.97
2019-02-12T19:11:09.136Z,15.20
2019-02-12T19:13:38.764Z,14.97
2019-02-12T19:16:08.512Z,15.03
2019-02-12T19:18:38.244Z,14.17
2019-02-12T19:21:08.055Z,15.83
2019-02-12T19:23:37.701Z,15.13
2019-02-12T19:26:07.309Z,13.93
2019-02-12T19:28:36.899Z,16.63
2019-02-12T19:31:07.037Z,13.83
2019-02-12T19:33:36.774Z,14.70
2019-02-12T19:36:06.500Z,15.40
2019-02-12T19:38:36.218Z,16.17
2019-02-12T19:41:06.245Z,16.50
2019-02-12T19:43:36.063Z,17.63
2019-02-12T19:46:10.427Z,15.93
2019-02-12T19:48:41.007Z,17.87
2019-02-12T19:51:11.252Z,18.00
2019-02-12T19:53:41.792Z,15.73
2019-02-12T19:56:14.936Z,15.80
2019-02-12T19:58:45.261Z,14.37
2019-02-12T20:01:15.707Z,18.10
2019-02-12T20:03:45.753Z,15.00
2019-02-12T20:06:22.080Z,16.27
2019-02-12T20:08:51.905Z,18.13
2019-02-12T20:11:22.111Z,18.83
2019-02-12T20:13:52.454Z,17.10
2019-02-12T20:16:22.757Z,17.83
2019-02-12T20:18:52.828Z,17.47
2019-02-12T20:21:22.485Z,17.63
2019-02-12T20:23:52.177Z,16.53
2019-02-12T20:26:22.496Z,17.23
2019-02-12T20:28:52.173Z,16.63
2019-02-12T20:31:26.387Z,16.87
2019-02-12T20:33:57.200Z,16.40
2019-02-12T20:36:26.953Z,17.90
2019-02-12T20:38:56.495Z,16.47
2019-02-12T20:41:25.999Z,16.47
2019-02-12T20:43:55.696Z,17.53
2019-02-12T20:46:25.470Z,16.10
2019-02-12T20:48:57.104Z,17.63
2019-02-12T20:51:26.764Z,17.10
2019-02-12T20:53:56.703Z,17.97
2019-02-12T20:56:27.363Z,16.97
2019-02-12T20:58:57.623Z,17.20
2019-02-12T21:01:28.140Z,16.33
2019-02-12T21:03:58.153Z,16.67
2019-02-12T21:06:27.977Z,17.43
2019-02-12T21:08:57.738Z,15.83
2019-02-12T21:11:28.191Z,15.47
2019-02-12T21:13:58.048Z,17.13
2019-02-12T21:16:30.631Z,15.33
2019-02-12T21:19:01.036Z,15.70
2019-02-12T21:21:30.899Z,15.87
2019-02-12T21:24:00.803Z,15.67
2019-02-12T21:26:31.958Z,15.63
2019-02-12T21:29:02.275Z,17.00
2019-02-12T21:31:32.830Z,15.87
2019-02-12T21:34:02.970Z,17.20
2019-02-12T21:36:32.951Z,16.20
2019-02-12T21:39:03.153Z,15.97
2019-02-12T21:41:39.806Z,16.50
2019-02-12T21:44:06.912Z,16.57
2019-02-12T21:46:37.137Z,15.77
2019-02-12T21:49:07.220Z,18.57
2019-02-12T21:51:49.981Z,18.07
2019-02-12T21:54:19.846Z,18.87
2019-02-12T21:56:49.638Z,17.20
2019-02-12T21:59:20.689Z,18.13
2019-02-12T22:01:50.689Z,18.53
2019-02-12T22:04:20.328Z,19.00
2019-02-12T22:06:50.325Z,19.53
2019-02-12T22:09:20.286Z,18.80
2019-02-12T22:11:50.346Z,18.23
2019-02-12T22:14:20.169Z,17.80
2019-02-12T22:16:49.850Z,18.03
2019-02-12T22:19:19.818Z,18.93
2019-02-12T22:21:49.463Z,20.10
2019-02-12T22:24:19.165Z,17.60
2019-02-12T22:26:48.673Z,19.70
2019-02-12T22:29:18.375Z,16.27
2019-02-12T22:31:48.244Z,19.60
2019-02-12T22:34:18.022Z,18.00
2019-02-12T22:36:47.736Z,20.73
2019-02-12T22:39:17.330Z,18.20
2019-02-12T22:41:47.235Z,19.40
2019-02-12T22:44:16.875Z,18.30
2019-02-12T22:46:46.542Z,18.50
2019-02-12T22:49:16.204Z,17.40
2019-02-12T22:51:46.004Z,19.63
2019-02-12T22:54:15.586Z,20.00
2019-02-12T22:56:45.438Z,18.07
2019-02-12T22:59:15.266Z,19.30
2019-02-12T23:01:45.226Z,18.63
2019-02-12T23:04:14.824Z,17.80
2019-02-12T23:06:44.417Z,18.63
2019-02-12T23:09:18.223Z,20.40
2019-02-12T23:11:47.913Z,19.20
2019-02-12T23:14:17.814Z,18.80
2019-02-12T23:16:47.498Z,18.77
2019-02-12T23:19:17.156Z,18.57
2019-02-12T23:21:46.868Z,19.90
2019-02-12T23:24:16.480Z,18.03
2019-02-12T23:26:46.074Z,18.80
2019-02-12T23:29:15.617Z,17.87
2019-02-12T23:31:45.318Z,18.97
2019-02-12T23:34:14.802Z,17.17
2019-02-12T23:36:44.327Z,18.17
2019-02-12T23:39:14.072Z,18.23
2019-02-12T23:41:43.749Z,18.70
2019-02-12T23:44:13.507Z,17.97
2019-02-12T23:46:43.111Z,18.43
2019-02-12T23:49:12.765Z,18.30
2019-02-12T23:51:42.663Z,18.07
2019-02-12T23:54:12.590Z,18.60
2019-02-12T23:56:42.220Z,18.97
2019-02-12T23:59:11.857Z,17.93
